Terminal Aerodrome Forecast
Issued by NWS Binghamton, NY

Current Version | Previous Version | Text Only | Print | Product List | Glossary On
Versions: 1 2 3 4 5 6 7 8 9 10 11 12 13 14 15 16 17 18 19 20 21 22 23 24 25 26
000
FTUS41 KBGM 110900 AAA
TAFSYR
TAF AMD
KSYR 110900Z 1109/1206 VRB04KT P6SM FEW250
      TEMPO 1116/1118 28008G15KT -SHRA OVC040
     FM111800 30008G15KT P6SM SCT040
     FM112300 32007KT P6SM FEW050=

USA.gov is the U.S. government's official web portal to all federal, state and local government web resources and services.